createdAt,value
2023-05-22T00:00:58.077Z,17.00
2023-05-22T00:01:57.478Z,16.99
2023-05-22T00:02:57.845Z,16.98
2023-05-22T00:03:57.642Z,16.97
2023-05-22T00:04:57.749Z,16.95
2023-05-22T00:05:57.820Z,16.92
2023-05-22T00:06:57.929Z,16.89
2023-05-22T00:07:57.979Z,16.86
2023-05-22T00:08:58.081Z,16.83
2023-05-22T00:09:58.168Z,16.81
2023-05-22T00:10:58.272Z,16.81
2023-05-22T00:11:58.356Z,16.81
2023-05-22T00:12:58.433Z,16.80
2023-05-22T00:13:58.496Z,16.78
2023-05-22T00:14:58.586Z,16.78
2023-05-22T00:15:58.698Z,16.78
2023-05-22T00:16:58.832Z,16.76
2023-05-22T00:17:58.884Z,16.75
2023-05-22T00:18:58.923Z,16.73
2023-05-22T00:19:59.013Z,16.70
2023-05-22T00:20:59.110Z,16.68
2023-05-22T00:21:59.165Z,16.66
2023-05-22T00:22:59.269Z,16.64
2023-05-22T00:23:59.321Z,16.62
2023-05-22T00:24:59.389Z,16.60
2023-05-22T00:25:59.484Z,16.59
2023-05-22T00:26:59.584Z,16.56
2023-05-22T00:27:59.672Z,16.53
2023-05-22T00:28:59.769Z,16.50
2023-05-22T00:29:59.876Z,16.48
2023-05-22T00:30:59.948Z,16.45
2023-05-22T00:32:00.041Z,16.44
2023-05-22T00:33:00.159Z,16.42
2023-05-22T00:34:00.341Z,16.41
2023-05-22T00:35:00.306Z,16.40
2023-05-22T00:36:00.365Z,16.38
2023-05-22T00:37:00.456Z,16.37
2023-05-22T00:38:00.566Z,16.35
2023-05-22T00:39:00.617Z,16.34
2023-05-22T00:40:00.698Z,16.34
2023-05-22T00:41:00.769Z,16.34
2023-05-22T00:42:00.828Z,16.34
2023-05-22T00:43:00.907Z,16.34
2023-05-22T00:44:01.017Z,16.33
2023-05-22T00:45:01.091Z,16.32
2023-05-22T00:46:01.161Z,16.30
2023-05-22T00:47:01.360Z,16.29
2023-05-22T00:48:01.326Z,16.29
2023-05-22T00:49:01.403Z,16.29
2023-05-22T00:50:01.475Z,16.28
2023-05-22T00:51:01.533Z,16.27
2023-05-22T00:52:01.625Z,16.25
2023-05-22T00:53:01.723Z,16.24
2023-05-22T00:54:01.815Z,16.23
2023-05-22T00:55:01.904Z,16.21
2023-05-22T00:56:01.982Z,16.19
2023-05-22T00:57:02.036Z,16.17
2023-05-22T00:58:02.127Z,16.15
2023-05-22T00:59:02.197Z,16.13
2023-05-22T01:00:02.274Z,16.10
2023-05-22T01:01:02.976Z,16.09
2023-05-22T01:02:02.485Z,16.07
2023-05-22T01:03:02.546Z,16.06
2023-05-22T01:04:02.648Z,16.04
2023-05-22T01:05:02.693Z,16.02
2023-05-22T01:06:02.748Z,16.00
2023-05-22T01:07:02.855Z,16.00
2023-05-22T01:08:02.923Z,15.99
2023-05-22T01:09:02.988Z,15.98
2023-05-22T01:10:03.076Z,15.96
2023-05-22T01:11:03.191Z,15.93
2023-05-22T01:12:03.248Z,15.92
2023-05-22T01:13:03.340Z,15.91
2023-05-22T01:14:03.470Z,15.90
2023-05-22T01:15:03.511Z,15.90
2023-05-22T01:16:03.662Z,15.88
2023-05-22T01:17:03.696Z,15.87
2023-05-22T01:18:03.765Z,15.86
2023-05-22T01:19:03.881Z,15.84
2023-05-22T01:20:03.934Z,15.83
2023-05-22T01:21:04.022Z,15.82
2023-05-22T01:22:04.104Z,15.82
2023-05-22T01:23:04.223Z,15.81
2023-05-22T01:24:04.286Z,15.81
2023-05-22T01:25:04.354Z,15.80
2023-05-22T01:26:04.424Z,15.79
2023-05-22T01:27:04.522Z,15.79
2023-05-22T01:28:04.585Z,15.78
2023-05-22T01:29:04.664Z,15.78
2023-05-22T01:30:04.731Z,15.77
2023-05-22T01:31:04.781Z,15.75
2023-05-22T01:32:04.887Z,15.73
2023-05-22T01:33:05.026Z,15.70
2023-05-22T01:34:05.077Z,15.69
2023-05-22T01:35:05.116Z,15.69
2023-05-22T01:36:05.220Z,15.70
2023-05-22T01:37:05.332Z,15.70
2023-05-22T01:38:05.383Z,15.69
2023-05-22T01:39:05.485Z,15.67
2023-05-22T01:40:05.570Z,15.64
2023-05-22T01:41:05.672Z,15.62
2023-05-22T01:42:05.769Z,15.62
2023-05-22T01:43:05.825Z,15.62
2023-05-22T01:44:05.934Z,15.63
2023-05-22T01:45:05.992Z,15.62
2023-05-22T01:46:06.118Z,15.62
2023-05-22T01:47:06.130Z,15.60
2023-05-22T01:48:06.261Z,15.58
2023-05-22T01:49:06.351Z,15.56
2023-05-22T01:50:06.469Z,15.55
2023-05-22T01:51:06.502Z,15.55
2023-05-22T01:52:06.581Z,15.54
2023-05-22T01:53:06.665Z,15.53
2023-05-22T01:54:06.763Z,15.53
2023-05-22T01:55:06.830Z,15.53
2023-05-22T01:56:06.896Z,15.52
2023-05-22T01:57:06.984Z,15.52
2023-05-22T01:58:07.100Z,15.53
2023-05-22T01:59:07.172Z,15.54
2023-05-22T02:00:07.227Z,15.54
2023-05-22T02:01:07.356Z,15.53
2023-05-22T02:02:07.434Z,15.52
2023-05-22T02:03:07.801Z,15.51
2023-05-22T02:04:07.531Z,15.51
2023-05-22T02:05:07.625Z,15.50
2023-05-22T02:06:07.711Z,15.49
2023-05-22T02:07:08.120Z,15.48
2023-05-22T02:08:07.881Z,15.45
2023-05-22T02:09:07.981Z,15.41
2023-05-22T02:10:08.083Z,15.38
2023-05-22T02:11:08.167Z,15.36
2023-05-22T02:12:08.233Z,15.33
2023-05-22T02:13:08.322Z,15.32
2023-05-22T02:14:08.423Z,15.31
2023-05-22T02:15:08.516Z,15.30
2023-05-22T02:16:08.598Z,15.28
2023-05-22T02:17:08.673Z,15.26
2023-05-22T02:18:08.784Z,15.24
2023-05-22T02:19:08.907Z,15.23
2023-05-22T02:20:08.921Z,15.21
2023-05-22T02:21:09.027Z,15.20
2023-05-22T02:22:09.112Z,15.20
2023-05-22T02:23:09.200Z,15.21
2023-05-22T02:24:09.314Z,15.22
2023-05-22T02:25:09.352Z,15.22
2023-05-22T02:26:09.445Z,15.21
2023-05-22T02:27:09.547Z,15.19
2023-05-22T02:28:09.632Z,15.17
2023-05-22T02:29:09.721Z,15.15
2023-05-22T02:30:09.834Z,15.13
2023-05-22T02:31:09.930Z,15.12
2023-05-22T02:32:09.955Z,15.12
2023-05-22T02:33:10.044Z,15.10
2023-05-22T02:34:10.100Z,15.07
2023-05-22T02:35:10.199Z,15.05
2023-05-22T02:36:10.249Z,15.03
2023-05-22T02:37:10.322Z,15.02
2023-05-22T02:38:10.374Z,15.01
2023-05-22T02:39:10.472Z,15.00
2023-05-22T02:40:10.594Z,14.99
2023-05-22T02:41:10.646Z,14.98
2023-05-22T02:42:10.733Z,14.97
2023-05-22T02:43:10.791Z,14.96
2023-05-22T02:44:10.886Z,14.96
2023-05-22T02:45:10.993Z,14.96
2023-05-22T02:46:11.081Z,14.95
2023-05-22T02:47:11.151Z,14.94
2023-05-22T02:48:11.344Z,14.94
2023-05-22T02:49:11.322Z,14.94
2023-05-22T02:50:11.386Z,14.93
2023-05-22T02:51:11.468Z,14.92
2023-05-22T02:52:11.514Z,14.90
2023-05-22T02:53:11.612Z,14.89
2023-05-22T02:54:11.718Z,14.88
2023-05-22T02:55:11.811Z,14.87
2023-05-22T02:56:11.903Z,14.86
2023-05-22T02:57:11.957Z,14.85
2023-05-22T02:58:12.035Z,14.84
2023-05-22T02:59:12.106Z,14.84
2023-05-22T03:00:12.217Z,14.83
2023-05-22T03:01:12.289Z,14.82
2023-05-22T03:02:12.334Z,14.80
2023-05-22T03:03:12.482Z,14.78
2023-05-22T03:04:12.687Z,14.76
2023-05-22T03:05:12.606Z,14.74
2023-05-22T03:06:12.630Z,14.72
2023-05-22T03:07:12.727Z,14.72
2023-05-22T03:08:12.837Z,14.71
2023-05-22T03:09:12.919Z,14.70
2023-05-22T03:10:13.003Z,14.70
2023-05-22T03:11:13.120Z,14.71
2023-05-22T03:12:13.173Z,14.70
2023-05-22T03:13:13.309Z,14.69
2023-05-22T03:14:13.346Z,14.68
2023-05-22T03:15:13.433Z,14.66
2023-05-22T03:16:13.516Z,14.64
2023-05-22T03:17:13.586Z,14.61
2023-05-22T03:18:13.693Z,14.59
2023-05-22T03:19:13.831Z,14.58
2023-05-22T03:20:13.877Z,14.57
2023-05-22T03:21:13.947Z,14.56
2023-05-22T03:22:14.037Z,14.56
2023-05-22T03:23:14.122Z,14.57
2023-05-22T03:24:14.231Z,14.56
2023-05-22T03:25:14.322Z,14.55
2023-05-22T03:26:14.423Z,14.55
2023-05-22T03:27:14.497Z,14.55
2023-05-22T03:28:14.550Z,14.55
2023-05-22T03:29:14.700Z,14.55
2023-05-22T03:30:14.711Z,14.54
2023-05-22T03:31:14.791Z,14.54
2023-05-22T03:32:14.861Z,14.54
2023-05-22T03:33:14.982Z,14.54
2023-05-22T03:34:15.039Z,14.55
2023-05-22T03:35:15.139Z,14.56
2023-05-22T03:36:15.242Z,14.58
2023-05-22T03:37:15.261Z,14.58
2023-05-22T03:38:15.361Z,14.58
2023-05-22T03:39:15.469Z,14.58
2023-05-22T03:40:15.509Z,14.58
2023-05-22T03:41:15.604Z,14.58
2023-05-22T03:42:15.700Z,14.58
2023-05-22T03:43:15.765Z,14.58
2023-05-22T03:44:15.856Z,14.58
2023-05-22T03:45:15.955Z,14.58
2023-05-22T03:46:16.061Z,14.58
2023-05-22T03:47:16.111Z,14.58
2023-05-22T03:48:16.228Z,14.57
2023-05-22T03:49:16.256Z,14.58
2023-05-22T03:50:16.355Z,14.59
2023-05-22T03:51:19.312Z,14.59
2023-05-22T03:52:16.557Z,14.59
2023-05-22T03:53:16.618Z,14.59
2023-05-22T03:54:16.675Z,14.60
2023-05-22T03:55:16.777Z,14.60
2023-05-22T03:56:16.848Z,14.61
2023-05-22T03:57:16.893Z,14.63
2023-05-22T03:58:16.955Z,14.66
2023-05-22T03:59:17.043Z,14.68
2023-05-22T04:00:17.094Z,14.69
2023-05-22T04:01:17.186Z,14.69
2023-05-22T04:02:17.361Z,14.70
2023-05-22T04:03:17.431Z,14.71
2023-05-22T04:04:17.459Z,14.73
2023-05-22T04:05:17.558Z,14.75
2023-05-22T04:06:17.646Z,14.77
2023-05-22T04:07:17.728Z,14.78
2023-05-22T04:08:17.795Z,14.80
2023-05-22T04:09:17.905Z,14.82
2023-05-22T04:10:17.965Z,14.84
2023-05-22T04:11:18.029Z,14.86
2023-05-22T04:12:18.101Z,14.88
2023-05-22T04:13:18.212Z,14.88
2023-05-22T04:14:18.323Z,14.88
2023-05-22T04:15:18.364Z,14.89
2023-05-22T04:16:18.466Z,14.91
2023-05-22T04:17:18.509Z,14.92
2023-05-22T04:18:18.619Z,14.93
2023-05-22T04:19:18.724Z,14.95
2023-05-22T04:20:18.776Z,14.97
2023-05-22T04:21:18.833Z,15.00
2023-05-22T04:22:18.923Z,15.03
2023-05-22T04:23:19.013Z,15.06
2023-05-22T04:24:19.072Z,15.10
2023-05-22T04:25:19.161Z,15.13
2023-05-22T04:26:19.252Z,15.19
2023-05-22T04:27:19.350Z,15.23
2023-05-22T04:28:19.438Z,15.27
2023-05-22T04:29:19.540Z,15.29
2023-05-22T04:30:19.636Z,15.31
2023-05-22T04:31:19.704Z,15.34
2023-05-22T04:32:19.776Z,15.37
2023-05-22T04:33:19.863Z,15.39
2023-05-22T04:34:19.955Z,15.41
2023-05-22T04:35:20.068Z,15.42
2023-05-22T04:36:20.126Z,15.43
2023-05-22T04:37:20.519Z,15.45
2023-05-22T04:38:20.284Z,15.48
2023-05-22T04:39:20.381Z,15.49
2023-05-22T04:40:20.476Z,15.51
2023-05-22T04:41:22.359Z,15.54
2023-05-22T04:42:20.633Z,15.56
2023-05-22T04:43:20.720Z,15.56
2023-05-22T04:44:20.821Z,15.57
2023-05-22T04:45:20.905Z,15.56
2023-05-22T04:46:21.038Z,15.57
2023-05-22T04:47:21.130Z,15.59
2023-05-22T04:48:21.148Z,15.63
2023-05-22T04:49:21.239Z,15.65
2023-05-22T04:50:21.325Z,15.67
2023-05-22T04:51:21.391Z,15.70
2023-05-22T04:52:21.463Z,15.73
2023-05-22T04:53:21.535Z,15.78
2023-05-22T04:54:21.626Z,15.81
2023-05-22T04:55:21.721Z,15.85
2023-05-22T04:56:34.756Z,15.89
2023-05-22T04:57:21.900Z,15.92
2023-05-22T04:58:21.965Z,15.93
2023-05-22T04:59:22.029Z,15.94
2023-05-22T05:00:22.131Z,15.96
2023-05-22T05:01:22.266Z,16.01
2023-05-22T05:02:22.324Z,16.05
2023-05-22T05:03:22.387Z,16.09
2023-05-22T05:04:22.474Z,16.12
2023-05-22T05:05:22.566Z,16.13
2023-05-22T05:06:22.690Z,16.14
2023-05-22T05:07:22.737Z,16.16
2023-05-22T05:08:22.846Z,16.20
2023-05-22T05:09:22.903Z,16.23
2023-05-22T05:10:22.956Z,16.25
2023-05-22T05:11:23.076Z,16.27
2023-05-22T05:12:23.133Z,16.28
2023-05-22T05:13:23.207Z,16.29
2023-05-22T05:14:23.318Z,16.30
2023-05-22T05:15:23.398Z,16.34
2023-05-22T05:16:23.490Z,16.39
2023-05-22T05:17:23.549Z,16.44
2023-05-22T05:18:23.627Z,16.49
2023-05-22T05:19:23.758Z,16.54
2023-05-22T05:20:23.785Z,16.61
2023-05-22T05:21:23.851Z,16.66
2023-05-22T05:22:23.962Z,16.68
2023-05-22T05:23:24.045Z,16.71
2023-05-22T05:24:24.139Z,16.76
2023-05-22T05:25:24.227Z,16.82
2023-05-22T05:26:24.342Z,16.88
2023-05-22T05:27:24.422Z,16.94
2023-05-22T05:28:24.517Z,17.00
2023-05-22T05:29:24.614Z,17.07
2023-05-22T05:30:24.701Z,17.14
2023-05-22T05:31:24.793Z,17.19
2023-05-22T05:32:24.944Z,17.22
2023-05-22T05:33:24.911Z,17.25
2023-05-22T05:34:24.975Z,17.31
2023-05-22T05:35:25.074Z,17.37
2023-05-22T05:36:25.168Z,17.41
2023-05-22T05:37:25.267Z,17.44
2023-05-22T05:38:25.316Z,17.48
2023-05-22T05:39:25.419Z,17.52
2023-05-22T05:40:26.086Z,17.56
2023-05-22T05:41:25.589Z,17.60
2023-05-22T05:42:25.686Z,17.64
2023-05-22T05:43:25.780Z,17.68
2023-05-22T05:44:25.829Z,17.73
2023-05-22T05:45:25.915Z,17.78
2023-05-22T05:46:26.055Z,17.82
2023-05-22T05:47:26.097Z,17.87
2023-05-22T05:48:26.179Z,17.93
2023-05-22T05:49:26.271Z,17.96
2023-05-22T05:50:26.369Z,18.00
2023-05-22T05:51:26.484Z,18.06
2023-05-22T05:52:26.533Z,18.14
2023-05-22T05:53:26.660Z,18.23
2023-05-22T05:54:26.720Z,18.33
2023-05-22T05:55:26.812Z,18.46
2023-05-22T05:56:26.906Z,18.56
2023-05-22T05:57:27.013Z,18.64
2023-05-22T05:58:27.115Z,18.73
2023-05-22T05:59:27.172Z,18.83
2023-05-22T06:00:27.272Z,18.89
2023-05-22T06:01:27.327Z,18.92
2023-05-22T06:02:27.488Z,18.93
2023-05-22T06:03:27.587Z,18.95
2023-05-22T06:04:27.575Z,18.97
2023-05-22T06:05:27.648Z,18.99
2023-05-22T06:06:27.726Z,19.02
2023-05-22T06:07:27.819Z,19.08
2023-05-22T06:08:27.876Z,19.15
2023-05-22T06:09:27.976Z,19.22
2023-05-22T06:10:28.030Z,19.24
2023-05-22T06:11:28.128Z,19.24
2023-05-22T06:12:28.193Z,19.27
2023-05-22T06:13:28.280Z,19.32
2023-05-22T06:14:28.371Z,19.40
2023-05-22T06:15:28.433Z,19.50
2023-05-22T06:16:28.541Z,19.57
2023-05-22T06:17:28.638Z,19.58
2023-05-22T06:18:28.738Z,19.58
2023-05-22T06:19:28.991Z,19.58
2023-05-22T06:20:28.882Z,19.55
2023-05-22T06:21:28.950Z,19.55
2023-05-22T06:22:29.039Z,19.60
2023-05-22T06:23:29.136Z,19.66
2023-05-22T06:24:29.230Z,19.68
2023-05-22T06:25:29.329Z,19.66
2023-05-22T06:26:29.390Z,19.65
2023-05-22T06:27:29.486Z,19.67
2023-05-22T06:28:29.573Z,19.73
2023-05-22T06:29:29.661Z,19.78
2023-05-22T06:30:39.525Z,19.80
2023-05-22T06:31:29.870Z,19.82
2023-05-22T06:32:30.027Z,19.88
2023-05-22T06:33:30.089Z,19.88
2023-05-22T06:34:30.163Z,19.87
2023-05-22T06:35:30.156Z,19.86
2023-05-22T06:36:30.215Z,19.85
2023-05-22T06:37:30.301Z,19.88
2023-05-22T06:38:30.402Z,19.98
2023-05-22T06:39:31.905Z,20.12
2023-05-22T06:40:30.571Z,20.26
2023-05-22T06:41:30.631Z,20.43
2023-05-22T06:42:30.703Z,20.59
2023-05-22T06:43:30.788Z,20.69
2023-05-22T06:44:30.877Z,20.77
2023-05-22T06:45:31.045Z,20.84
2023-05-22T06:46:31.078Z,20.92
2023-05-22T06:47:31.171Z,20.98
2023-05-22T06:48:31.216Z,21.02
2023-05-22T06:49:31.263Z,21.02
2023-05-22T06:50:31.362Z,21.04
2023-05-22T06:51:31.462Z,21.14
2023-05-22T06:52:31.518Z,21.28
2023-05-22T06:53:31.617Z,21.42
2023-05-22T06:54:31.732Z,21.58
2023-05-22T06:55:31.776Z,21.75
2023-05-22T06:56:31.929Z,21.90
2023-05-22T06:57:31.959Z,22.01
2023-05-22T06:58:32.020Z,22.10
2023-05-22T06:59:32.106Z,22.17
2023-05-22T07:00:32.161Z,22.16
2023-05-22T07:01:32.323Z,22.12
2023-05-22T07:02:32.362Z,22.12
2023-05-22T07:03:32.452Z,22.23
2023-05-22T07:04:32.498Z,22.39
2023-05-22T07:05:32.625Z,22.55
2023-05-22T07:06:32.658Z,22.65
2023-05-22T07:07:32.758Z,22.72
2023-05-22T07:08:32.815Z,22.78
2023-05-22T07:09:32.908Z,22.78
2023-05-22T07:10:33.016Z,22.76
2023-05-22T07:11:33.095Z,22.79
2023-05-22T07:12:33.209Z,22.83
2023-05-22T07:13:39.731Z,22.85
2023-05-22T07:14:33.333Z,22.90
2023-05-22T07:15:34.992Z,22.97
2023-05-22T07:16:33.513Z,23.07
2023-05-22T07:17:33.662Z,23.18
2023-05-22T07:18:33.635Z,23.29
2023-05-22T07:19:33.741Z,23.40
2023-05-22T07:20:33.769Z,23.48
2023-05-22T07:21:33.872Z,23.50
2023-05-22T07:22:33.957Z,23.50
2023-05-22T07:23:34.005Z,23.55
2023-05-22T07:24:34.103Z,23.69
2023-05-22T07:25:34.153Z,23.85
2023-05-22T07:26:34.248Z,24.04
2023-05-22T07:27:34.352Z,24.25
2023-05-22T07:28:34.426Z,24.49
2023-05-22T07:29:34.464Z,24.66
2023-05-22T07:30:34.587Z,24.73
2023-05-22T07:31:34.721Z,24.83
2023-05-22T07:32:34.785Z,25.02
2023-05-22T07:33:34.851Z,25.23
2023-05-22T07:34:34.893Z,25.38
2023-05-22T07:35:35.018Z,25.44
2023-05-22T07:36:35.110Z,25.44
2023-05-22T07:37:35.148Z,25.40
2023-05-22T07:38:35.251Z,25.35
2023-05-22T07:39:35.357Z,25.26
2023-05-22T07:40:35.379Z,25.15
2023-05-22T07:41:35.467Z,25.12
2023-05-22T07:42:35.591Z,25.17
2023-05-22T07:43:35.665Z,25.21
2023-05-22T07:44:35.759Z,25.20
2023-05-22T07:45:35.824Z,25.19
2023-05-22T07:46:35.970Z,25.19
2023-05-22T07:47:35.971Z,25.11
2023-05-22T07:48:36.068Z,24.98
2023-05-22T07:49:36.115Z,24.83
2023-05-22T07:50:36.192Z,24.69
2023-05-22T07:51:36.277Z,24.57
2023-05-22T07:52:36.332Z,24.46
2023-05-22T07:53:36.395Z,24.39
2023-05-22T07:54:36.506Z,24.35
2023-05-22T07:55:36.577Z,24.34
2023-05-22T07:56:36.656Z,24.39
2023-05-22T07:57:36.760Z,24.50
2023-05-22T07:58:36.847Z,24.57
2023-05-22T07:59:36.974Z,24.63
2023-05-22T08:00:37.043Z,24.70
2023-05-22T08:01:37.093Z,24.81
2023-05-22T08:02:37.268Z,24.97
2023-05-22T08:03:37.421Z,25.16
2023-05-22T08:04:37.485Z,25.35
2023-05-22T08:05:37.461Z,25.48
2023-05-22T08:06:37.622Z,25.54
2023-05-22T08:07:37.663Z,25.61
2023-05-22T08:08:37.710Z,25.76
2023-05-22T08:09:37.790Z,25.94
2023-05-22T08:11:39.693Z,26.32
2023-05-22T08:12:37.998Z,26.60
2023-05-22T08:13:38.092Z,26.94
2023-05-22T08:14:38.184Z,27.27
2023-05-22T08:15:39.035Z,27.54
2023-05-22T08:16:38.398Z,27.70
2023-05-22T08:17:38.418Z,27.75
2023-05-22T08:18:38.459Z,27.72
2023-05-22T08:19:38.694Z,27.64
2023-05-22T08:20:38.956Z,27.62
2023-05-22T08:21:38.730Z,27.68
2023-05-22T08:22:38.826Z,27.85
2023-05-22T08:23:38.910Z,28.21
2023-05-22T08:24:39.545Z,28.61
2023-05-22T08:25:39.050Z,28.85
2023-05-22T08:26:39.124Z,29.04
2023-05-22T08:27:39.201Z,29.13
2023-05-22T08:28:39.282Z,29.13
2023-05-22T08:29:39.381Z,29.06
2023-05-22T08:30:39.726Z,28.94
2023-05-22T08:31:39.670Z,28.88
2023-05-22T08:32:39.701Z,28.72
2023-05-22T08:33:39.735Z,28.56
2023-05-22T08:34:39.823Z,28.58
2023-05-22T08:35:39.879Z,28.65
2023-05-22T08:36:39.985Z,28.65
2023-05-22T08:37:40.047Z,28.61
2023-05-22T08:38:40.133Z,28.53
2023-05-22T08:39:40.226Z,28.33
2023-05-22T08:40:41.922Z,28.10
2023-05-22T08:41:40.400Z,27.81
2023-05-22T08:42:40.466Z,27.58
2023-05-22T08:43:40.568Z,27.45
2023-05-22T08:44:40.635Z,27.37
2023-05-22T08:45:40.730Z,27.39
2023-05-22T08:46:40.859Z,27.60
2023-05-22T08:47:40.972Z,27.92
2023-05-22T08:48:41.036Z,28.26
2023-05-22T08:49:41.121Z,28.61
2023-05-22T08:50:41.364Z,28.89
2023-05-22T08:51:41.246Z,29.10
2023-05-22T08:52:41.357Z,29.32
2023-05-22T08:53:41.398Z,29.44
2023-05-22T08:54:41.498Z,29.48
2023-05-22T08:55:41.572Z,29.57
2023-05-22T08:56:53.088Z,29.67
2023-05-22T08:57:41.724Z,29.74
2023-05-22T08:58:41.838Z,29.87
2023-05-22T08:59:41.917Z,30.11
2023-05-22T09:00:42.197Z,30.36
2023-05-22T09:01:42.083Z,30.53
2023-05-22T09:02:42.178Z,30.71
2023-05-22T09:03:42.330Z,30.89
2023-05-22T09:04:42.284Z,31.02
2023-05-22T09:05:42.342Z,31.13
2023-05-22T09:06:42.438Z,31.10
2023-05-22T09:07:42.528Z,30.98
2023-05-22T09:08:42.611Z,30.86
2023-05-22T09:09:42.687Z,30.73
2023-05-22T09:10:42.764Z,30.54
2023-05-22T09:11:42.816Z,30.33
2023-05-22T09:12:42.895Z,30.25
2023-05-22T09:13:43.018Z,30.31
2023-05-22T09:14:43.082Z,30.39
2023-05-22T09:15:43.182Z,30.41
2023-05-22T09:16:43.298Z,30.41
2023-05-22T09:17:43.368Z,30.42
2023-05-22T09:18:43.413Z,30.40
2023-05-22T09:19:43.548Z,30.50
2023-05-22T09:20:43.620Z,30.59
2023-05-22T09:21:43.856Z,30.57
2023-05-22T09:22:43.785Z,30.51
2023-05-22T09:23:43.840Z,30.49
2023-05-22T09:24:43.935Z,30.61
2023-05-22T09:25:44.025Z,30.85
2023-05-22T09:26:44.128Z,31.08
2023-05-22T09:27:44.218Z,31.16
2023-05-22T09:28:44.351Z,31.03
2023-05-22T09:29:44.416Z,30.91
2023-05-22T09:30:44.600Z,30.93
2023-05-22T09:31:44.886Z,30.97
2023-05-22T09:32:44.726Z,31.02
2023-05-22T09:33:44.733Z,31.12
2023-05-22T09:34:44.797Z,31.12
2023-05-22T09:35:44.892Z,31.14
2023-05-22T09:36:44.998Z,31.13
2023-05-22T09:37:45.069Z,30.95
2023-05-22T09:38:45.136Z,30.72
2023-05-22T09:39:45.227Z,30.55
2023-05-22T09:40:45.265Z,30.48
2023-05-22T09:41:45.334Z,30.40
2023-05-22T09:42:45.419Z,30.22
2023-05-22T09:43:45.513Z,29.99
2023-05-22T09:44:45.576Z,29.84
2023-05-22T09:45:45.681Z,29.75
2023-05-22T09:46:45.806Z,29.67
2023-05-22T09:47:45.833Z,29.64
2023-05-22T09:48:45.890Z,29.64
2023-05-22T09:49:45.989Z,29.67
2023-05-22T09:50:46.164Z,29.75
2023-05-22T09:51:46.157Z,29.77
2023-05-22T09:52:46.258Z,29.65
2023-05-22T09:53:46.354Z,29.50
2023-05-22T09:54:46.459Z,29.36
2023-05-22T09:55:46.552Z,29.25
2023-05-22T09:56:46.652Z,29.17
2023-05-22T09:57:46.733Z,29.05
2023-05-22T09:58:46.821Z,28.93
2023-05-22T09:59:46.911Z,28.84
2023-05-22T10:00:46.976Z,28.78
2023-05-22T10:01:47.175Z,28.62
2023-05-22T10:02:47.204Z,28.36
2023-05-22T10:03:49.323Z,28.09
2023-05-22T10:04:47.457Z,27.88
2023-05-22T10:05:47.422Z,27.75
2023-05-22T10:06:47.498Z,27.69
2023-05-22T10:07:47.553Z,27.66
2023-05-22T10:08:47.667Z,27.63
2023-05-22T10:09:47.715Z,27.59
2023-05-22T10:10:47.808Z,27.58
2023-05-22T10:11:47.943Z,27.61
2023-05-22T10:12:48.013Z,27.66
2023-05-22T10:13:48.073Z,27.67
2023-05-22T10:14:48.176Z,27.70
2023-05-22T10:15:48.291Z,27.76
2023-05-22T10:16:48.385Z,27.74
2023-05-22T10:17:48.490Z,27.74
2023-05-22T10:18:48.522Z,27.82
2023-05-22T10:19:48.753Z,27.94
2023-05-22T10:20:48.688Z,28.05
2023-05-22T10:21:48.746Z,28.15
2023-05-22T10:22:48.840Z,28.31
2023-05-22T10:23:48.934Z,28.59
2023-05-22T10:24:49.024Z,28.94
2023-05-22T10:25:49.120Z,29.27
2023-05-22T10:26:49.208Z,29.47
2023-05-22T10:27:49.305Z,29.60
2023-05-22T10:28:49.401Z,29.66
2023-05-22T10:29:49.498Z,29.66
2023-05-22T10:30:49.574Z,29.72
2023-05-22T10:31:49.679Z,29.83
2023-05-22T10:32:49.808Z,29.96
2023-05-22T10:33:49.851Z,30.16
2023-05-22T10:34:49.920Z,30.41
2023-05-22T10:35:50.025Z,30.67
2023-05-22T10:36:50.082Z,30.82
2023-05-22T10:37:50.204Z,30.81
2023-05-22T10:38:50.260Z,30.60
2023-05-22T10:39:50.332Z,30.30
2023-05-22T10:40:50.430Z,30.13
2023-05-22T10:41:50.539Z,30.02
2023-05-22T10:42:50.593Z,29.93
2023-05-22T10:43:50.696Z,29.93
2023-05-22T10:44:50.753Z,30.02
2023-05-22T10:45:50.869Z,30.05
2023-05-22T10:46:50.949Z,30.03
2023-05-22T10:47:51.080Z,30.01
2023-05-22T10:48:51.108Z,30.01
2023-05-22T10:49:51.223Z,30.04
2023-05-22T10:50:51.299Z,30.04
2023-05-22T10:51:51.396Z,30.01
2023-05-22T10:52:51.525Z,29.97
2023-05-22T10:53:51.607Z,29.87
2023-05-22T10:54:51.662Z,29.73
2023-05-22T10:55:51.763Z,29.60
2023-05-22T10:56:51.888Z,29.49
2023-05-22T10:57:51.945Z,29.47
2023-05-22T10:58:52.095Z,29.54
2023-05-22T10:59:52.110Z,29.65
2023-05-22T11:00:52.162Z,29.70
2023-05-22T11:01:52.262Z,29.79
2023-05-22T11:02:52.420Z,29.90
2023-05-22T11:03:52.449Z,30.03
2023-05-22T11:04:52.601Z,30.21
2023-05-22T11:05:52.690Z,30.39
2023-05-22T11:06:52.738Z,30.57
2023-05-22T11:07:52.795Z,30.74
2023-05-22T11:08:52.880Z,30.91
2023-05-22T11:09:52.970Z,31.15
2023-05-22T11:10:53.020Z,31.39
2023-05-22T11:11:53.139Z,31.64
2023-05-22T11:12:53.191Z,31.84
2023-05-22T11:13:53.264Z,31.89
2023-05-22T11:14:53.400Z,31.82
2023-05-22T11:15:53.457Z,31.67
2023-05-22T11:16:53.628Z,31.55
2023-05-22T11:17:53.726Z,31.57
2023-05-22T11:18:53.776Z,31.69
2023-05-22T11:19:53.901Z,31.87
2023-05-22T11:20:53.908Z,32.04
2023-05-22T11:21:53.965Z,32.16
2023-05-22T11:22:54.059Z,32.19
2023-05-22T11:23:54.850Z,32.19
2023-05-22T11:24:54.229Z,32.23
2023-05-22T11:25:54.338Z,32.24
2023-05-22T11:26:54.393Z,32.30
2023-05-22T11:27:54.505Z,32.52
2023-05-22T11:28:54.562Z,32.81
2023-05-22T11:29:54.667Z,33.13
2023-05-22T11:30:54.765Z,33.42
2023-05-22T11:31:54.802Z,33.54
2023-05-22T11:32:54.949Z,33.56
2023-05-22T11:33:54.946Z,33.52
2023-05-22T11:34:55.059Z,33.35
2023-05-22T11:35:55.138Z,33.19
2023-05-22T11:36:55.228Z,33.07
2023-05-22T11:37:55.296Z,32.94
2023-05-22T11:38:55.387Z,32.80
2023-05-22T11:39:55.489Z,32.65
2023-05-22T11:40:55.575Z,32.50
2023-05-22T11:41:55.693Z,32.32
2023-05-22T11:42:55.756Z,32.16
2023-05-22T11:43:55.844Z,32.08
2023-05-22T11:44:55.936Z,31.96
2023-05-22T11:45:56.054Z,31.75
2023-05-22T11:46:56.170Z,31.68
2023-05-22T11:47:56.263Z,31.72
2023-05-22T11:48:56.257Z,31.72
2023-05-22T11:49:56.341Z,31.83
2023-05-22T11:50:56.443Z,32.07
2023-05-22T11:51:56.544Z,32.23
2023-05-22T11:52:56.679Z,32.26
2023-05-22T11:53:56.704Z,32.28
2023-05-22T11:54:56.868Z,32.21
2023-05-22T11:55:56.852Z,32.11
2023-05-22T11:56:56.939Z,32.00
2023-05-22T11:57:57.069Z,31.95
2023-05-22T11:58:57.119Z,31.93
2023-05-22T11:59:57.237Z,31.85
2023-05-22T12:00:57.281Z,31.78
2023-05-22T12:01:57.368Z,31.67
2023-05-22T12:02:57.524Z,31.58
2023-05-22T12:03:57.767Z,31.63
2023-05-22T12:04:57.781Z,31.79
2023-05-22T12:05:57.787Z,31.91
2023-05-22T12:06:57.836Z,31.92
2023-05-22T12:07:57.914Z,31.84
2023-05-22T12:08:58.011Z,31.83
2023-05-22T12:09:58.119Z,31.90
2023-05-22T12:10:58.191Z,32.11
2023-05-22T12:11:58.296Z,32.27
2023-05-22T12:12:58.350Z,32.38
2023-05-22T12:13:58.448Z,32.46
2023-05-22T12:14:58.513Z,32.51
2023-05-22T12:15:58.638Z,32.51
2023-05-22T12:16:58.837Z,32.46
2023-05-22T12:17:58.780Z,32.40
2023-05-22T12:18:58.904Z,32.40
2023-05-22T12:19:58.934Z,32.40
2023-05-22T12:20:59.027Z,32.39
2023-05-22T12:21:59.112Z,32.44
2023-05-22T12:22:59.168Z,32.62
2023-05-22T12:23:59.258Z,32.86
2023-05-22T12:24:59.396Z,33.12
2023-05-22T12:25:59.453Z,33.30
2023-05-22T12:26:59.548Z,33.32
2023-05-22T12:27:59.640Z,33.27
2023-05-22T12:28:59.733Z,33.20
2023-05-22T12:29:59.823Z,33.11
2023-05-22T12:30:59.892Z,33.01
2023-05-22T12:32:00.041Z,32.96
2023-05-22T12:33:00.151Z,32.95
2023-05-22T12:34:00.181Z,33.00
2023-05-22T12:35:00.265Z,33.11
2023-05-22T12:36:00.332Z,33.11
2023-05-22T12:37:00.430Z,33.02
2023-05-22T12:38:00.491Z,32.82
2023-05-22T12:39:00.551Z,32.54
2023-05-22T12:40:00.656Z,32.39
2023-05-22T12:41:00.754Z,32.34
2023-05-22T12:42:00.818Z,32.20
2023-05-22T12:43:00.899Z,32.15
2023-05-22T12:44:01.001Z,32.30
2023-05-22T12:45:01.090Z,32.53
2023-05-22T12:46:02.877Z,32.71
2023-05-22T12:47:01.258Z,32.79
2023-05-22T12:48:01.388Z,32.76
2023-05-22T12:49:01.451Z,32.68
2023-05-22T12:50:01.544Z,32.59
2023-05-22T12:51:01.600Z,32.51
2023-05-22T12:52:01.708Z,32.56
2023-05-22T12:53:01.804Z,32.69
2023-05-22T12:54:01.905Z,32.75
2023-05-22T12:55:01.989Z,32.69